DISCUS EPBY-EPBY
Flight info
| Callsign | DISCUS |
|---|---|
| Flight time | 0h 36m |
| Altitude | 5000 |
| Route | EPBY RWY 08L TRAFFIC PATERNS |
| Aircraft | GLID/L-GVYS/S |
Departure
| Time | 2026-05-07 18:01 |
|---|---|
| Airport | Ignacy Jan Paderewski Bydgoszcz Airport (EPBY) |
Arrival
| Time | 2026-05-07 18:37 |
|---|---|
| Airport | Ignacy Jan Paderewski Bydgoszcz Airport (EPBY) |
| Time | Latitude | Longitude | Altitude | Speed | Heading |
|---|---|---|---|---|---|
| 2026-05-07 18:00 | 53.10562 | 17.95285 | 217 ft | 0 kts | 82° |
| 2026-05-07 18:00 | 53.10585 | 17.95805 | 1247 ft | 46 kts | 80° |
| 2026-05-07 18:01 | 53.10623 | 17.96390 | 1815 ft | 48 kts | 72° |
| 2026-05-07 18:01 | 53.10760 | 17.96738 | 1828 ft | 48 kts | 338° |
| 2026-05-07 18:01 | 53.10578 | 17.96336 | 1852 ft | 63 kts | 143° |
| 2026-05-07 18:01 | 53.10662 | 17.96506 | 1875 ft | 58 kts | 296° |
| 2026-05-07 18:02 | 53.10466 | 17.96446 | 1912 ft | 56 kts | 315° |
| 2026-05-07 18:02 | 53.10212 | 17.96001 | 1952 ft | 65 kts | 150° |
| 2026-05-07 18:02 | 53.10269 | 17.96163 | 1970 ft | 60 kts | 300° |
| 2026-05-07 18:03 | 53.09983 | 17.95973 | 2021 ft | 53 kts | 91° |
| 2026-05-07 18:03 | 53.10135 | 17.95856 | 2066 ft | 67 kts | 254° |
| 2026-05-07 18:03 | 53.09792 | 17.95817 | 2147 ft | 47 kts | 81° |
| 2026-05-07 18:03 | 53.09957 | 17.95660 | 2170 ft | 70 kts | 257° |
| 2026-05-07 18:04 | 53.09639 | 17.95688 | 2207 ft | 51 kts | 69° |
| 2026-05-07 18:04 | 53.09841 | 17.95505 | 2263 ft | 66 kts | 262° |
| 2026-05-07 18:04 | 53.09513 | 17.95462 | 2318 ft | 49 kts | 81° |
| 2026-05-07 18:04 | 53.09686 | 17.95315 | 2332 ft | 68 kts | 255° |
| 2026-05-07 18:05 | 53.09396 | 17.95385 | 2374 ft | 49 kts | 55° |
| 2026-05-07 18:05 | 53.09511 | 17.95038 | 2426 ft | 72 kts | 225° |
| 2026-05-07 18:05 | 53.09335 | 17.95294 | 2466 ft | 49 kts | 16° |
| 2026-05-07 18:05 | 53.09327 | 17.94806 | 2517 ft | 72 kts | 191° |
| 2026-05-07 18:06 | 53.09232 | 17.95147 | 2509 ft | 51 kts | 360° |
| 2026-05-07 18:06 | 53.09165 | 17.94645 | 2542 ft | 69 kts | 174° |
| 2026-05-07 18:06 | 53.09138 | 17.95021 | 2521 ft | 47 kts | 25° |
| 2026-05-07 18:06 | 53.09431 | 17.95193 | 2592 ft | 42 kts | 22° |
| 2026-05-07 18:07 | 53.09709 | 17.95349 | 2634 ft | 41 kts | 19° |
| 2026-05-07 18:07 | 53.09982 | 17.95455 | 2683 ft | 40 kts | 16° |
| 2026-05-07 18:07 | 53.10253 | 17.95544 | 2714 ft | 40 kts | 14° |
| 2026-05-07 18:07 | 53.10532 | 17.95605 | 2741 ft | 41 kts | 11° |
| 2026-05-07 18:08 | 53.10817 | 17.95656 | 2774 ft | 42 kts | 11° |
| 2026-05-07 18:08 | 53.11092 | 17.95757 | 2764 ft | 44 kts | 47° |
| 2026-05-07 18:08 | 53.11170 | 17.96304 | 2750 ft | 50 kts | 79° |
| 2026-05-07 18:08 | 53.10861 | 17.96686 | 2714 ft | 75 kts | 187° |
| 2026-05-07 18:09 | 53.10759 | 17.96126 | 2715 ft | 55 kts | 349° |
| 2026-05-07 18:09 | 53.10748 | 17.96466 | 2754 ft | 68 kts | 164° |
| 2026-05-07 18:09 | 53.10604 | 17.96042 | 2781 ft | 48 kts | 359° |
| 2026-05-07 18:09 | 53.10561 | 17.96440 | 2815 ft | 65 kts | 167° |
| 2026-05-07 18:10 | 53.10392 | 17.95942 | 2823 ft | 52 kts | 331° |
| 2026-05-07 18:10 | 53.10512 | 17.96241 | 2828 ft | 61 kts | 122° |
| 2026-05-07 18:10 | 53.10177 | 17.95998 | 2859 ft | 61 kts | 286° |
| 2026-05-07 18:10 | 53.10370 | 17.95930 | 2893 ft | 47 kts | 81° |
| 2026-05-07 18:11 | 53.10064 | 17.95946 | 2898 ft | 62 kts | 276° |
| 2026-05-07 18:11 | 53.10179 | 17.95902 | 2927 ft | 49 kts | 94° |
| 2026-05-07 18:11 | 53.10083 | 17.95750 | 2957 ft | 46 kts | 69° |
| 2026-05-07 18:11 | 53.09824 | 17.95658 | 2957 ft | 62 kts | 294° |
| 2026-05-07 18:12 | 53.09898 | 17.95819 | 2970 ft | 67 kts | 152° |
| 2026-05-07 18:12 | 53.09782 | 17.95406 | 2966 ft | 50 kts | 10° |
| 2026-05-07 18:12 | 53.09695 | 17.95735 | 2966 ft | 74 kts | 207° |
| 2026-05-07 18:12 | 53.09796 | 17.95427 | 2973 ft | 50 kts | 61° |
| 2026-05-07 18:13 | 53.09518 | 17.95456 | 2989 ft | 64 kts | 274° |
| 2026-05-07 18:13 | 53.09584 | 17.95521 | 3008 ft | 62 kts | 147° |
| 2026-05-07 18:13 | 53.09470 | 17.95152 | 2999 ft | 47 kts | 14° |
| 2026-05-07 18:13 | 53.09283 | 17.95332 | 3004 ft | 70 kts | 246° |
| 2026-05-07 18:14 | 53.09386 | 17.95277 | 3023 ft | 58 kts | 117° |
| 2026-05-07 18:14 | 53.09184 | 17.95015 | 3042 ft | 49 kts | 352° |
| 2026-05-07 18:14 | 53.09052 | 17.95216 | 3040 ft | 69 kts | 232° |
| 2026-05-07 18:14 | 53.09194 | 17.95090 | 3041 ft | 43 kts | 58° |
| 2026-05-07 18:15 | 53.09337 | 17.95493 | 3054 ft | 41 kts | 33° |
| 2026-05-07 18:15 | 53.09580 | 17.95756 | 3087 ft | 42 kts | 31° |
| 2026-05-07 18:15 | 53.09820 | 17.96015 | 3125 ft | 41 kts | 32° |
| 2026-05-07 18:15 | 53.10061 | 17.96257 | 3161 ft | 41 kts | 30° |
| 2026-05-07 18:16 | 53.10301 | 17.96507 | 3181 ft | 40 kts | 32° |
| 2026-05-07 18:16 | 53.10535 | 17.96761 | 3187 ft | 42 kts | 32° |
| 2026-05-07 18:16 | 53.10776 | 17.97028 | 3196 ft | 42 kts | 32° |
| 2026-05-07 18:16 | 53.11029 | 17.97293 | 3180 ft | 45 kts | 31° |
| 2026-05-07 18:17 | 53.11298 | 17.97551 | 3165 ft | 45 kts | 30° |
| 2026-05-07 18:17 | 53.11571 | 17.97808 | 3149 ft | 45 kts | 27° |
| 2026-05-07 18:17 | 53.11764 | 17.97979 | 3111 ft | 49 kts | 28° |
| 2026-05-07 18:17 | 53.12177 | 17.98301 | 3082 ft | 50 kts | 24° |
| 2026-05-07 18:18 | 53.12513 | 17.98457 | 3045 ft | 50 kts | 24° |
| 2026-05-07 18:18 | 53.12732 | 17.98579 | 3030 ft | 50 kts | 18° |
| 2026-05-07 18:18 | 53.13180 | 17.98762 | 2999 ft | 49 kts | 15° |
| 2026-05-07 18:18 | 53.13399 | 17.98866 | 2975 ft | 50 kts | 21° |
| 2026-05-07 18:19 | 53.13721 | 17.99049 | 2938 ft | 49 kts | 22° |
| 2026-05-07 18:19 | 53.14040 | 17.99259 | 2913 ft | 49 kts | 23° |
| 2026-05-07 18:19 | 53.14344 | 17.99460 | 2907 ft | 46 kts | 27° |
| 2026-05-07 18:19 | 53.14618 | 17.99726 | 2887 ft | 46 kts | 30° |
| 2026-05-07 18:20 | 53.14890 | 17.99981 | 2864 ft | 44 kts | 28° |
| 2026-05-07 18:20 | 53.15149 | 17.99911 | 2838 ft | 64 kts | 281° |
| 2026-05-07 18:20 | 53.14786 | 17.99709 | 2822 ft | 59 kts | 126° |
| 2026-05-07 18:20 | 53.14806 | 18.00196 | 2771 ft | 44 kts | 39° |
| 2026-05-07 18:21 | 53.15065 | 18.00406 | 2789 ft | 41 kts | 12° |
| 2026-05-07 18:21 | 53.15374 | 18.00422 | 2778 ft | 46 kts | 6° |
| 2026-05-07 18:21 | 53.15651 | 18.00239 | 2778 ft | 64 kts | 282° |
| 2026-05-07 18:21 | 53.15312 | 18.00116 | 2779 ft | 55 kts | 103° |
| 2026-05-07 18:22 | 53.15472 | 18.00097 | 2775 ft | 64 kts | 280° |
| 2026-05-07 18:22 | 53.15270 | 17.99745 | 2765 ft | 69 kts | 182° |
| 2026-05-07 18:22 | 53.15141 | 18.00053 | 2736 ft | 55 kts | 310° |
| 2026-05-07 18:22 | 53.14845 | 17.99720 | 2706 ft | 62 kts | 133° |
| 2026-05-07 18:23 | 53.14886 | 18.00199 | 2633 ft | 48 kts | 41° |
| 2026-05-07 18:23 | 53.14934 | 18.00627 | 2684 ft | 64 kts | 148° |
| 2026-05-07 18:23 | 53.14789 | 18.00200 | 2664 ft | 50 kts | 351° |
| 2026-05-07 18:23 | 53.14782 | 18.00572 | 2663 ft | 70 kts | 163° |
| 2026-05-07 18:24 | 53.14617 | 18.00100 | 2680 ft | 46 kts | 343° |
| 2026-05-07 18:24 | 53.14575 | 18.00398 | 2670 ft | 68 kts | 170° |
| 2026-05-07 18:24 | 53.14432 | 17.99920 | 2658 ft | 45 kts | 349° |
| 2026-05-07 18:24 | 53.14400 | 18.00247 | 2620 ft | 66 kts | 165° |
| 2026-05-07 18:25 | 53.14218 | 17.99782 | 2623 ft | 48 kts | 334° |
| 2026-05-07 18:25 | 53.14454 | 17.99945 | 2612 ft | 42 kts | 40° |
| 2026-05-07 18:25 | 53.14630 | 18.00313 | 2628 ft | 38 kts | 53° |
| 2026-05-07 18:25 | 53.14737 | 18.00731 | 2619 ft | 40 kts | 57° |
| 2026-05-07 18:26 | 53.14873 | 18.01160 | 2560 ft | 43 kts | 49° |
| 2026-05-07 18:26 | 53.15029 | 18.01579 | 2539 ft | 43 kts | 51° |
| 2026-05-07 18:26 | 53.15249 | 18.01891 | 2502 ft | 44 kts | 31° |
| 2026-05-07 18:26 | 53.15500 | 18.02179 | 2475 ft | 43 kts | 32° |
| 2026-05-07 18:27 | 53.15752 | 18.02457 | 2447 ft | 43 kts | 12° |
| 2026-05-07 18:27 | 53.16035 | 18.02262 | 2421 ft | 41 kts | 358° |
| 2026-05-07 18:27 | 53.16310 | 18.02410 | 2344 ft | 47 kts | 24° |
| 2026-05-07 18:27 | 53.16611 | 18.02636 | 2304 ft | 46 kts | 23° |
| 2026-05-07 18:28 | 53.16871 | 18.02515 | 2299 ft | 60 kts | 288° |
| 2026-05-07 18:28 | 53.16545 | 18.02185 | 2264 ft | 64 kts | 135° |
| 2026-05-07 18:28 | 53.16488 | 18.02714 | 2244 ft | 43 kts | 54° |
| 2026-05-07 18:28 | 53.16686 | 18.02767 | 2231 ft | 62 kts | 283° |
| 2026-05-07 18:29 | 53.16359 | 18.02689 | 2192 ft | 56 kts | 90° |
| 2026-05-07 18:29 | 53.16565 | 18.02880 | 2210 ft | 50 kts | 326° |
| 2026-05-07 18:29 | 53.16422 | 18.02281 | 2165 ft | 72 kts | 196° |
| 2026-05-07 18:29 | 53.16148 | 18.02629 | 2141 ft | 46 kts | 49° |
| 2026-05-07 18:30 | 53.16287 | 18.02309 | 2085 ft | 73 kts | 244° |
| 2026-05-07 18:30 | 53.15887 | 18.02336 | 2068 ft | 58 kts | 102° |
| 2026-05-07 18:30 | 53.16029 | 18.02760 | 2038 ft | 44 kts | 19° |
| 2026-05-07 18:30 | 53.16303 | 18.02916 | 2083 ft | 41 kts | 24° |
| 2026-05-07 18:31 | 53.16365 | 18.03304 | 2075 ft | 64 kts | 137° |
| 2026-05-07 18:31 | 53.16043 | 18.02894 | 2039 ft | 63 kts | 276° |
| 2026-05-07 18:31 | 53.16225 | 18.02640 | 2060 ft | 44 kts | 50° |
| 2026-05-07 18:31 | 53.15961 | 18.02749 | 2027 ft | 68 kts | 244° |
| 2026-05-07 18:32 | 53.16096 | 18.02327 | 1979 ft | 47 kts | 25° |
| 2026-05-07 18:32 | 53.16308 | 18.02742 | 1947 ft | 47 kts | 47° |
| 2026-05-07 18:32 | 53.16482 | 18.03178 | 1966 ft | 44 kts | 52° |
| 2026-05-07 18:32 | 53.16686 | 18.03175 | 1949 ft | 62 kts | 282° |
| 2026-05-07 18:33 | 53.16353 | 18.02947 | 1950 ft | 58 kts | 114° |
| 2026-05-07 18:33 | 53.16503 | 18.03077 | 1958 ft | 54 kts | 310° |
| 2026-05-07 18:33 | 53.16226 | 18.02709 | 1945 ft | 65 kts | 143° |
| 2026-05-07 18:33 | 53.16291 | 18.03023 | 1930 ft | 46 kts | 0° |
| 2026-05-07 18:34 | 53.16588 | 18.03044 | 1972 ft | 39 kts | 19° |
| 2026-05-07 18:34 | 53.16861 | 18.03179 | 1958 ft | 43 kts | 16° |
| 2026-05-07 18:34 | 53.17169 | 18.03309 | 1920 ft | 47 kts | 19° |
| 2026-05-07 18:34 | 53.17472 | 18.03452 | 1917 ft | 45 kts | 16° |
| 2026-05-07 18:35 | 53.17795 | 18.03544 | 1889 ft | 46 kts | 11° |
| 2026-05-07 18:35 | 53.18116 | 18.03605 | 1855 ft | 47 kts | 11° |
| 2026-05-07 18:35 | 53.18430 | 18.03659 | 1851 ft | 46 kts | 352° |
| 2026-05-07 18:35 | 53.18593 | 18.03179 | 1831 ft | 62 kts | 268° |
| 2026-05-07 18:36 | 53.18284 | 18.02695 | 1813 ft | 67 kts | 181° |
| 2026-05-07 18:36 | 53.17925 | 18.03060 | 1753 ft | 63 kts | 116° |
| 2026-05-07 18:36 | 53.17595 | 18.03512 | 1744 ft | 66 kts | 154° |
| 2026-05-07 18:36 | 53.17148 | 18.03346 | 1727 ft | 68 kts | 226° |
| 2026-05-07 18:37 | 53.16997 | 18.02701 | 1679 ft | 58 kts | 306° |
| 2026-05-07 18:37 | 53.17301 | 18.02408 | 1613 ft | 51 kts | 347° |
| 2026-05-07 18:37 | 53.17627 | 18.02375 | 1572 ft | 49 kts | 40° |
| 2026-05-07 18:37 | 53.17545 | 18.02920 | 1554 ft | 68 kts | 153° |
| 2026-05-07 18:38 | 53.17276 | 18.02485 | 1498 ft | 62 kts | 311° |
| 2026-05-07 18:38 | 53.17577 | 18.02644 | 1439 ft | 55 kts | 11° |
| 2026-05-07 18:38 | 53.17874 | 18.02939 | 1291 ft | 72 kts | 86° |
| 2026-05-07 18:38 | 53.17789 | 18.03806 | 1209 ft | 75 kts | 105° |
| 2026-05-07 18:39 | 53.17615 | 18.04591 | 1264 ft | 60 kts | 98° |
| 2026-05-07 18:39 | 53.17528 | 18.05260 | 1258 ft | 59 kts | 89° |
| 2026-05-07 18:39 | 53.17482 | 18.05938 | 1234 ft | 56 kts | 70° |
| 2026-05-07 18:39 | 53.17776 | 18.06344 | 1197 ft | 52 kts | 22° |
| 2026-05-07 18:40 | 53.18090 | 18.06155 | 1196 ft | 57 kts | 311° |
| 2026-05-07 18:40 | 53.18291 | 18.05564 | 1148 ft | 61 kts | 309° |
| 2026-05-07 18:40 | 53.18459 | 18.04949 | 1165 ft | 55 kts | 303° |
| 2026-05-07 18:40 | 53.18612 | 18.04372 | 1083 ft | 58 kts | 298° |
| 2026-05-07 18:41 | 53.18570 | 18.03718 | 962 ft | 71 kts | 208° |
| 2026-05-07 18:41 | 53.18128 | 18.03632 | 900 ft | 69 kts | 135° |
| 2026-05-07 18:41 | 53.18005 | 18.04344 | 711 ft | 61 kts | 89° |
| 2026-05-07 18:41 | 53.17969 | 18.05013 | 540 ft | 60 kts | 86° |
| 2026-05-07 18:42 | 53.17941 | 18.05689 | 309 ft | 51 kts | 83° |
| 2026-05-07 18:42 | 53.17941 | 18.05896 | 310 ft | 5 kts | 104° |
| 2026-05-07 18:42 | 53.17940 | 18.05907 | 310 ft | 0 kts | 104° |